Time;durP1;ratioP1;P1;durP2;ratioP2;P2;SDS_P1;SDS_P2;PMS_P1;PMS_P2;Temp;Humidity;BMP_temperature;BMP_pressure;BME280_temperature;BME280_humidity;BME280_pressure;Samples;Min_cycle;Max_cycle;Signal;HPM_P1;HPM_P2
2022/08/15 00:01:40;;;;;;;1.52;1.23;;;24.40;49.00;;;;;;6210490;28;20429;-69
2022/08/15 00:04:41;;;;;;;1.42;1.33;;;24.40;49.00;;;;;;6193569;28;20113;-68
2022/08/15 00:07:42;;;;;;;2.63;1.40;;;24.40;49.10;;;;;;6239700;28;20029;-69
2022/08/15 00:10:44;;;;;;;1.50;1.20;;;24.40;49.10;;;;;;6243252;28;20021;-68
2022/08/15 00:13:49;;;;;;;1.30;1.13;;;24.40;49.20;;;;;;6243330;28;20030;-68
2022/08/15 00:16:50;;;;;;;1.52;1.25;;;24.40;49.20;;;;;;6229493;28;20038;-68
2022/08/15 00:19:51;;;;;;;1.20;1.10;;;24.40;49.20;;;;;;6218736;28;20034;-68
2022/08/15 00:22:52;;;;;;;1.45;1.30;;;24.40;49.00;;;;;;6240927;28;20384;-68
2022/08/15 00:25:57;;;;;;;1.50;1.38;;;24.40;49.10;;;;;;6238204;28;20026;-68
2022/08/15 00:28:58;;;;;;;1.40;1.30;;;24.40;49.10;;;;;;6218735;28;20036;-68
2022/08/15 00:31:59;;;;;;;1.30;1.20;;;24.40;49.20;;;;;;6232009;28;20021;-68
2022/08/15 00:35:01;;;;;;;1.40;1.30;;;24.40;49.20;;;;;;6243795;28;20121;-68
2022/08/15 00:38:04;;;;;;;1.67;1.20;;;24.40;49.20;;;;;;6226575;28;20350;-68
2022/08/15 00:44:41;;;;;;;1.42;1.27;;;24.40;49.20;;;;;;6247870;28;20480;-68
2022/08/15 00:47:42;;;;;;;1.30;1.20;;;24.40;49.40;;;;;;6230725;28;20088;-68
2022/08/15 00:50:43;;;;;;;1.20;1.10;;;24.40;49.30;;;;;;6223091;28;20021;-68
2022/08/15 00:53:49;;;;;;;1.30;1.20;;;24.40;49.40;;;;;;6247368;28;20025;-68
2022/08/15 00:56:59;;;;;;;1.30;1.08;;;24.40;49.20;;;;;;6238538;28;20061;-68
2022/08/15 01:00:05;;;;;;;1.45;1.10;;;24.40;49.40;;;;;;6222912;28;20080;-68
2022/08/15 01:03:12;;;;;;;1.52;1.40;;;24.40;49.20;;;;;;6240915;28;20032;-68
2022/08/15 01:06:14;;;;;;;1.42;1.27;;;24.40;49.50;;;;;;6244829;28;20018;-68
2022/08/15 01:09:16;;;;;;;1.30;1.20;;;24.40;49.20;;;;;;6222602;28;20488;-68
2022/08/15 01:12:20;;;;;;;1.48;1.10;;;24.40;49.20;;;;;;6230799;28;20408;-68
2022/08/15 01:15:22;;;;;;;1.10;1.00;;;24.40;49.40;;;;;;6221194;28;20030;-68
2022/08/15 01:18:23;;;;;;;1.52;1.35;;;24.40;49.30;;;;;;6240647;28;20499;-68
2022/08/15 01:21:38;;;;;;;1.15;1.02;;;24.40;49.30;;;;;;6245176;28;20029;-68
2022/08/15 01:24:56;;;;;;;1.30;1.20;;;24.40;49.40;;;;;;6221953;28;20056;-68
2022/08/15 01:28:21;;;;;;;0.95;0.88;;;24.40;49.40;;;;;;6235683;28;20679;-68
2022/08/15 01:31:25;;;;;;;1.38;1.27;;;24.40;49.50;;;;;;6246647;28;20040;-68
2022/08/15 01:34:25;;;;;;;1.35;1.23;;;24.40;49.50;;;;;;6222039;28;20038;-68
2022/08/15 01:37:26;;;;;;;1.55;1.35;;;24.40;49.60;;;;;;6230346;28;20029;-68
2022/08/15 01:40:42;;;;;;;1.40;1.02;;;24.30;49.50;;;;;;6246495;28;20060;-68
2022/08/15 01:43:58;;;;;;;1.30;1.17;;;24.30;49.60;;;;;;6228200;28;20022;-68
2022/08/15 01:47:13;;;;;;;1.35;1.20;;;24.30;49.70;;;;;;6224359;28;20068;-68
2022/08/15 01:50:27;;;;;;;1.60;1.33;;;24.30;49.70;;;;;;6246142;28;20106;-68
2022/08/15 01:53:37;;;;;;;1.40;1.20;;;24.30;49.90;;;;;;6231504;28;20118;-68
2022/08/15 01:56:41;;;;;;;1.40;1.30;;;24.30;49.80;;;;;;6221668;28;20389;-69
2022/08/15 01:59:42;;;;;;;1.37;1.27;;;24.30;49.80;;;;;;6245257;28;20075;-68
2022/08/15 02:02:43;;;;;;;1.10;1.00;;;24.30;49.80;;;;;;6219257;28;20083;-68
2022/08/15 02:05:43;;;;;;;1.10;1.00;;;24.30;49.90;;;;;;6245808;28;20135;-68
2022/08/15 02:08:44;;;;;;;1.77;1.38;;;24.30;49.90;;;;;;6231235;28;20029;-68
2022/08/15 02:11:48;;;;;;;1.25;1.15;;;24.30;50.00;;;;;;6235603;28;20083;-68
2022/08/15 02:14:49;;;;;;;1.35;1.25;;;24.30;50.00;;;;;;6222676;28;20069;-68
2022/08/15 02:17:49;;;;;;;1.15;1.00;;;24.30;50.10;;;;;;6226898;28;20028;-68
2022/08/15 02:20:50;;;;;;;1.35;1.25;;;24.30;50.20;;;;;;6245357;28;20645;-68
2022/08/15 02:23:50;;;;;;;1.20;1.10;;;24.30;50.20;;;;;;6231681;28;20042;-68
2022/08/15 02:26:53;;;;;;;1.05;1.00;;;24.30;50.10;;;;;;6220663;28;20080;-68
2022/08/15 02:29:54;;;;;;;1.30;1.20;;;24.30;50.20;;;;;;6242036;28;20037;-68
2022/08/15 02:32:56;;;;;;;1.55;1.42;;;24.30;50.20;;;;;;6240716;28;20088;-68
2022/08/15 02:35:58;;;;;;;1.17;1.08;;;24.30;50.30;;;;;;6220561;28;20080;-68
2022/08/15 02:39:01;;;;;;;1.70;1.33;;;24.30;50.40;;;;;;6233035;28;20583;-68
2022/08/15 02:42:02;;;;;;;1.30;1.13;;;24.30;50.30;;;;;;6245007;28;20103;-68
2022/08/15 02:45:10;;;;;;;1.42;1.30;;;24.30;50.40;;;;;;6224113;28;20092;-68
2022/08/15 02:48:11;;;;;;;1.40;1.30;;;24.30;50.40;;;;;;6225117;28;20021;-69
2022/08/15 02:51:14;;;;;;;1.30;1.20;;;24.30;50.40;;;;;;6244467;28;20025;-69
2022/08/15 02:54:18;;;;;;;1.48;1.38;;;24.30;50.20;;;;;;6232159;28;20049;-68
2022/08/15 02:57:19;;;;;;;1.42;1.13;;;24.20;50.30;;;;;;6219851;28;20064;-68
2022/08/15 03:00:21;;;;;;;1.38;1.27;;;24.30;50.40;;;;;;6238958;28;20684;-68
2022/08/15 03:03:22;;;;;;;1.50;1.27;;;24.30;50.50;;;;;;6217123;28;20017;-68
2022/08/15 03:06:30;;;;;;;1.23;1.10;;;24.20;50.20;;;;;;6244351;28;20040;-68
2022/08/15 03:09:31;;;;;;;1.77;1.00;;;24.30;50.50;;;;;;6231938;28;20021;-68
2022/08/15 03:12:31;;;;;;;1.10;1.00;;;24.30;50.60;;;;;;6240358;28;20021;-68
2022/08/15 03:15:48;;;;;;;1.20;1.10;;;24.30;50.40;;;;;;6223837;28;20041;-68
2022/08/15 03:18:49;;;;;;;1.38;1.27;;;24.30;50.40;;;;;;6225329;28;20022;-68
2022/08/15 03:21:50;;;;;;;1.30;1.13;;;24.30;50.40;;;;;;6244647;28;20029;-68
2022/08/15 03:24:50;;;;;;;1.20;1.10;;;24.30;50.60;;;;;;6230486;28;20081;-68
2022/08/15 03:27:54;;;;;;;1.27;1.17;;;24.30;50.60;;;;;;6219385;28;20101;-69
2022/08/15 03:30:56;;;;;;;1.25;1.10;;;24.20;51.20;;;;;;6219629;28;20057;-68
2022/08/15 03:33:57;;;;;;;1.50;1.30;;;24.20;50.50;;;;;;6223924;28;20412;-68
2022/08/15 03:36:57;;;;;;;1.77;1.40;;;24.20;50.50;;;;;;6243886;28;20025;-68
2022/08/15 03:39:58;;;;;;;1.08;0.95;;;24.20;50.60;;;;;;6231591;28;20065;-68
2022/08/15 03:43:21;;;;;;;1.20;1.10;;;24.20;50.60;;;;;;6219464;28;20532;-68
2022/08/15 03:46:23;;;;;;;1.52;1.30;;;24.20;50.50;;;;;;6242107;28;20021;-68
2022/08/15 03:49:23;;;;;;;1.27;1.13;;;24.30;50.40;;;;;;6238075;28;20065;-68
2022/08/15 03:52:24;;;;;;;1.30;1.10;;;24.30;50.70;;;;;;6219170;28;20022;-69
2022/08/15 03:55:27;;;;;;;1.30;1.20;;;24.20;50.30;;;;;;6232976;28;20744;-68
2022/08/15 03:58:29;;;;;;;1.60;1.50;;;24.30;50.50;;;;;;6243411;28;20030;-68
2022/08/15 04:01:33;;;;;;;1.15;1.05;;;24.20;50.60;;;;;;6221431;28;20041;-68
2022/08/15 04:04:34;;;;;;;1.30;1.20;;;24.20;50.60;;;;;;6224686;28;20036;-68
2022/08/15 04:07:38;;;;;;;1.27;1.17;;;24.30;50.50;;;;;;6243388;28;20025;-69
2022/08/15 04:10:39;;;;;;;1.50;1.30;;;24.30;50.70;;;;;;6238867;28;20024;-68
2022/08/15 04:13:40;;;;;;;1.23;1.10;;;24.30;50.60;;;;;;6248603;28;20056;-68
2022/08/15 04:16:41;;;;;;;1.20;1.10;;;24.30;50.60;;;;;;6226954;28;20030;-69
2022/08/15 04:19:41;;;;;;;1.25;1.10;;;24.30;50.50;;;;;;6228348;28;20424;-68
2022/08/15 04:22:47;;;;;;;1.38;1.02;;;24.30;50.60;;;;;;6248291;28;20026;-68
2022/08/15 04:25:47;;;;;;;1.60;1.10;;;24.30;50.70;;;;;;6235330;28;20029;-68
2022/08/15 04:28:48;;;;;;;1.27;1.10;;;24.30;50.60;;;;;;6223468;28;20605;-68
2022/08/15 04:31:50;;;;;;;1.13;1.02;;;24.20;50.70;;;;;;6244643;28;20060;-68
2022/08/15 04:34:50;;;;;;;1.30;1.20;;;24.30;50.80;;;;;;6244413;28;20752;-68
2022/08/15 04:37:51;;;;;;;1.15;1.05;;;24.20;50.50;;;;;;6223281;28;20045;-68
2022/08/15 04:40:54;;;;;;;1.77;1.20;;;24.20;50.50;;;;;;6234725;28;20080;-68
2022/08/15 04:43:54;;;;;;;1.77;0.98;;;24.30;50.60;;;;;;6247763;28;20030;-69
2022/08/15 04:46:55;;;;;;;1.30;1.20;;;24.30;50.70;;;;;;6228286;28;20061;-68
2022/08/15 04:49:56;;;;;;;2.28;1.13;;;24.30;50.70;;;;;;6225344;28;20026;-68
2022/08/15 04:52:58;;;;;;;1.60;1.27;;;24.30;50.70;;;;;;6247818;28;20025;-68
2022/08/15 04:56:01;;;;;;;1.60;1.38;;;24.30;50.70;;;;;;6237298;28;20396;-68
2022/08/15 05:03:00;;;;;;;2.25;1.10;;;24.30;50.70;;;;;;6198758;28;20049;-68
2022/08/15 05:06:07;;;;;;;2.75;1.40;;;24.30;50.70;;;;;;6228598;28;20029;-68
2022/08/15 05:09:08;;;;;;;1.45;1.23;;;24.30;50.70;;;;;;6247161;28;20025;-68
2022/08/15 05:12:09;;;;;;;1.40;1.15;;;24.30;50.70;;;;;;6247273;28;20648;-68
2022/08/15 05:15:12;;;;;;;1.80;1.30;;;24.30;50.70;;;;;;6245854;28;20049;-69
2022/08/15 05:18:13;;;;;;;1.40;1.30;;;24.30;50.70;;;;;;6222503;28;20473;-69
2022/08/15 05:21:14;;;;;;;1.58;1.30;;;24.30;50.70;;;;;;6230537;28;20025;-68
2022/08/15 05:24:15;;;;;;;2.80;1.75;;;24.30;50.70;;;;;;6246646;28;20053;-68
2022/08/15 05:27:15;;;;;;;1.67;1.50;;;24.30;50.80;;;;;;6230274;28;20029;-68
2022/08/15 05:30:16;;;;;;;1.42;1.17;;;24.30;50.80;;;;;;6222132;28;20058;-68
2022/08/15 05:33:25;;;;;;;2.25;1.70;;;24.30;50.80;;;;;;6246160;28;20033;-68
2022/08/15 05:36:26;;;;;;;1.63;1.40;;;24.30;50.80;;;;;;6238547;28;20100;-68
2022/08/15 05:39:30;;;;;;;2.20;1.38;;;24.30;50.80;;;;;;6222189;28;20057;-68
2022/08/15 05:42:50;;;;;;;2.75;1.38;;;24.30;50.80;;;;;;6238452;28;20729;-68
2022/08/15 05:46:02;;;;;;;2.15;1.60;;;24.30;50.80;;;;;;6244373;28;20083;-68
2022/08/15 05:49:15;;;;;;;1.73;1.35;;;24.30;50.80;;;;;;6221701;28;20037;-68
2022/08/15 05:52:29;;;;;;;2.05;1.48;;;24.30;50.90;;;;;;6234507;28;20036;-68
2022/08/15 05:55:33;;;;;;;1.97;1.40;;;24.30;50.80;;;;;;6246263;28;20038;-68
2022/08/15 05:58:42;;;;;;;2.30;1.50;;;24.30;50.80;;;;;;6222877;28;20535;-68
2022/08/15 06:01:55;;;;;;;3.30;1.35;;;24.30;50.90;;;;;;6213353;28;20014;-68
2022/08/15 06:05:03;;;;;;;2.60;1.58;;;24.30;50.90;;;;;;6223817;28;20032;-68
2022/08/15 06:08:17;;;;;;;2.38;1.60;;;24.30;50.90;;;;;;6235464;28;20053;-69
2022/08/15 06:11:29;;;;;;;4.10;1.42;;;24.30;50.90;;;;;;6226023;28;20021;-68
2022/08/15 06:14:38;;;;;;;1.90;1.38;;;24.30;50.90;;;;;;6247582;28;20088;-68
2022/08/15 06:17:45;;;;;;;2.97;1.77;;;24.30;50.90;;;;;;6234554;28;20030;-68
2022/08/15 06:21:00;;;;;;;2.47;1.40;;;24.30;50.90;;;;;;6222829;28;20049;-68
2022/08/15 06:24:16;;;;;;;2.13;1.50;;;24.30;50.90;;;;;;6245468;28;20099;-68
2022/08/15 06:27:31;;;;;;;2.05;1.33;;;24.30;51.00;;;;;;6238476;28;20026;-68
2022/08/15 06:30:38;;;;;;;2.35;1.50;;;24.30;50.90;;;;;;6222463;28;20034;-67
2022/08/15 06:33:45;;;;;;;2.60;1.55;;;24.30;51.00;;;;;;6240226;28;20022;-69
2022/08/15 06:36:49;;;;;;;2.78;1.70;;;24.30;51.00;;;;;;6244560;28;20026;-69
2022/08/15 06:40:14;;;;;;;1.50;1.30;;;24.30;51.00;;;;;;6223495;28;20029;-69
2022/08/15 06:43:15;;;;;;;2.20;1.33;;;24.30;51.00;;;;;;6226568;28;20053;-68
2022/08/15 06:46:16;;;;;;;1.55;1.45;;;24.20;51.00;;;;;;6247164;28;20018;-69
2022/08/15 06:49:20;;;;;;;2.55;1.80;;;24.30;51.00;;;;;;6225276;28;20034;-68
2022/08/15 06:52:21;;;;;;;2.53;1.80;;;24.30;51.00;;;;;;6227887;28;20103;-68
2022/08/15 06:55:26;;;;;;;2.08;1.45;;;24.20;50.90;;;;;;6247148;28;20080;-68
2022/08/15 06:58:38;;;;;;;2.65;1.48;;;24.30;51.10;;;;;;6233061;28;20080;-69
2022/08/15 07:02:18;;;;;;;2.20;1.45;;;24.30;51.00;;;;;;6204979;28;20037;-69
2022/08/15 07:05:57;;;;;;;2.90;1.42;;;24.30;51.10;;;;;;6228320;28;20535;-68
2022/08/15 07:09:07;;;;;;;3.80;1.45;;;24.20;51.00;;;;;;6203102;28;20071;-68
2022/08/15 07:12:20;;;;;;;2.22;1.60;;;24.30;51.00;;;;;;6195809;28;20053;-68
2022/08/15 07:15:36;;;;;;;2.28;1.42;;;24.30;51.00;;;;;;6245411;28;20033;-68
2022/08/15 07:18:44;;;;;;;3.33;2.05;;;24.30;51.00;;;;;;6237081;28;20108;-69
2022/08/15 07:21:44;;;;;;;4.05;2.25;;;24.30;51.20;;;;;;6245429;28;20033;-69
2022/08/15 07:24:52;;;;;;;3.35;1.95;;;24.30;51.90;;;;;;6224552;28;20683;-68
2022/08/15 07:28:00;;;;;;;2.90;2.00;;;24.30;52.10;;;;;;6218410;28;20030;-68
2022/08/15 07:31:20;;;;;;;6.93;2.15;;;24.30;51.90;;;;;;6245809;28;20028;-68
2022/08/15 07:34:25;;;;;;;2.55;1.90;;;24.30;51.70;;;;;;6228857;28;20034;-69
2022/08/15 07:37:35;;;;;;;2.25;1.50;;;24.30;51.70;;;;;;6228681;28;20052;-68
2022/08/15 07:40:39;;;;;;;2.20;1.80;;;24.30;51.60;;;;;;6196860;28;20030;-69
2022/08/15 07:43:39;;;;;;;2.38;1.90;;;24.30;51.60;;;;;;6219809;28;20034;-68
2022/08/15 07:46:44;;;;;;;2.05;1.70;;;24.30;51.60;;;;;;6221656;28;20420;-68
2022/08/15 07:50:04;;;;;;;3.28;2.42;;;24.30;51.70;;;;;;6238294;28;20053;-68
2022/08/15 07:53:16;;;;;;;2.72;1.73;;;24.30;51.40;;;;;;6241602;28;20022;-68
2022/08/15 07:56:17;;;;;;;2.20;1.50;;;24.30;51.30;;;;;;6209474;28;20516;-69
2022/08/15 07:59:22;;;;;;;1.30;1.20;;;24.30;51.20;;;;;;6222236;28;20026;-68
2022/08/15 08:02:40;;;;;;;2.08;1.67;;;24.30;51.20;;;;;;6220699;28;20029;-69
2022/08/15 08:06:11;;;;;;;1.95;1.70;;;24.30;51.30;;;;;;6233494;28;20388;-69
2022/08/15 08:09:43;;;;;;;2.35;1.65;;;24.30;51.40;;;;;;6227727;28;20512;-66
2022/08/15 08:13:09;;;;;;;2.38;2.05;;;24.30;51.30;;;;;;6205622;28;20029;-69
2022/08/15 08:16:35;;;;;;;1.88;1.50;;;24.30;51.40;;;;;;6196203;28;20113;-69
2022/08/15 08:19:47;;;;;;;;;;;24.30;51.50;;;;;;6223461;28;20105;-69
2022/08/15 08:23:13;;;;;;;2.17;1.90;;;24.30;51.40;;;;;;6219579;28;19910;-69
2022/08/15 08:26:19;;;;;;;;;;;24.40;51.80;;;;;;6218656;28;20052;-69
2022/08/15 08:29:52;;;;;;;2.80;1.95;;;24.30;51.50;;;;;;6235715;28;19955;-69
2022/08/15 08:32:58;;;;;;;2.75;1.80;;;24.30;51.60;;;;;;6220508;28;20033;-70
2022/08/15 08:36:27;;;;;;;2.50;2.08;;;24.30;51.60;;;;;;6223509;28;20030;-69
2022/08/15 08:39:43;;;;;;;2.88;2.05;;;24.30;51.60;;;;;;6228348;28;20080;-69
2022/08/15 08:43:24;;;;;;;4.50;2.35;;;24.30;51.60;;;;;;6245088;28;20045;-69
2022/08/15 08:47:01;;;;;;;3.13;2.08;;;24.30;51.60;;;;;;6220360;28;20030;-69
2022/08/15 08:50:22;;;;;;;2.53;2.00;;;24.30;51.60;;;;;;6225183;28;20576;-69
2022/08/15 08:53:34;;;;;;;2.63;2.08;;;24.30;51.60;;;;;;6223196;28;20087;-68
2022/08/15 08:56:46;;;;;;;2.10;1.90;;;24.30;51.60;;;;;;6234340;28;20041;-69
2022/08/15 08:59:52;;;;;;;2.38;1.80;;;24.30;51.70;;;;;;6240549;28;20025;-69
2022/08/15 09:02:58;;;;;;;3.40;2.20;;;24.30;51.70;;;;;;6204142;28;20030;-69
2022/08/15 09:05:59;;;;;;;3.00;2.20;;;24.30;51.70;;;;;;6210845;28;20499;-69
2022/08/15 09:09:14;;;;;;;2.70;2.10;;;24.30;51.70;;;;;;6208980;28;20026;-68
2022/08/15 09:15:43;;;;;;;6.13;2.35;;;24.30;52.50;;;;;;6227089;28;20038;-68
2022/08/15 09:19:02;;;;;;;3.47;2.28;;;24.40;52.60;;;;;;6223742;28;20045;-69
2022/08/15 09:22:02;;;;;;;7.32;1.98;;;24.40;52.40;;;;;;6223488;28;20468;-70
2022/08/15 09:25:03;;;;;;;3.80;2.20;;;24.40;52.80;;;;;;6228242;28;20057;-70
2022/08/15 09:28:37;;;;;;;4.65;2.10;;;24.30;50.10;;;;;;6223900;28;20076;-69
2022/08/15 09:31:41;;;;;;;4.30;2.30;;;24.30;49.20;;;;;;6239702;28;20037;-70
2022/08/15 09:35:13;;;;;;;7.90;2.03;;;24.50;48.50;;;;;;6245120;28;20034;-70
2022/08/15 09:38:44;;;;;;;4.22;2.03;;;24.60;48.10;;;;;;6223534;28;20109;-69
2022/08/15 09:42:18;;;;;;;2.22;1.83;;;24.70;48.10;;;;;;6236046;28;20079;-71
2022/08/15 09:45:37;;;;;;;2.30;1.60;;;24.80;47.90;;;;;;6233216;28;20026;-69
2022/08/15 09:48:59;;;;;;;2.35;2.00;;;24.80;47.70;;;;;;6217869;28;20092;-69
2022/08/15 09:52:35;;;;;;;2.92;1.67;;;24.90;47.50;;;;;;6227027;28;20036;-69
2022/08/15 09:55:44;;;;;;;2.47;1.70;;;24.90;47.30;;;;;;6230676;28;20091;-70
2022/08/15 09:58:54;;;;;;;5.68;1.98;;;24.90;47.20;;;;;;6247892;28;20029;-70
2022/08/15 10:02:09;;;;;;;3.38;2.00;;;25.00;47.10;;;;;;6229743;28;20036;-69
2022/08/15 10:05:44;;;;;;;3.22;2.05;;;25.00;47.00;;;;;;6225615;28;20037;-69
2022/08/15 10:08:53;;;;;;;2.15;1.70;;;25.00;46.90;;;;;;6247355;28;20488;-70
2022/08/15 10:11:56;;;;;;;2.97;1.70;;;25.00;46.70;;;;;;6232968;28;20041;-70
2022/08/15 10:15:25;;;;;;;2.53;1.70;;;25.00;46.60;;;;;;6237377;28;20030;-69
2022/08/15 10:18:26;;;;;;;2.63;1.75;;;25.00;46.60;;;;;;6205732;28;20029;-70
2022/08/15 10:21:35;;;;;;;2.85;1.70;;;25.00;46.50;;;;;;6226524;28;20033;-70
2022/08/15 10:24:38;;;;;;;2.08;1.67;;;25.10;46.50;;;;;;6247380;28;20400;-70
2022/08/15 10:27:55;;;;;;;3.03;1.60;;;25.10;46.40;;;;;;6227604;28;20026;-70
2022/08/15 10:31:01;;;;;;;2.72;1.60;;;25.00;46.30;;;;;;6228027;28;20408;-70
2022/08/15 10:34:02;;;;;;;2.33;1.70;;;25.10;46.20;;;;;;6247848;28;20029;-69
2022/08/15 10:37:23;;;;;;;2.30;1.85;;;25.10;46.10;;;;;;6234049;28;20034;-70
2022/08/15 10:40:47;;;;;;;1.60;1.30;;;25.10;46.00;;;;;;6222829;28;20037;-70
2022/08/15 10:44:03;;;;;;;1.52;1.40;;;25.10;46.00;;;;;;6198694;28;20430;-69
2022/08/15 10:47:24;;;;;;;1.92;1.52;;;25.10;46.00;;;;;;6223046;28;20025;-69
2022/08/15 10:50:52;;;;;;;1.70;1.60;;;25.10;46.00;;;;;;6247437;28;20083;-69
2022/08/15 10:54:06;;;;;;;2.55;1.50;;;25.10;46.00;;;;;;6198168;28;20101;-70
2022/08/15 10:57:08;;;;;;;2.58;1.80;;;25.10;46.00;;;;;;6220901;28;20056;-70
2022/08/15 11:00:37;;;;;;;5.93;1.70;;;25.10;45.90;;;;;;6245532;28;20107;-70
2022/08/15 11:03:40;;;;;;;2.03;1.67;;;25.10;46.00;;;;;;6244137;28;20037;-70
2022/08/15 11:06:48;;;;;;;1.50;1.40;;;25.10;46.60;;;;;;6240014;28;20018;-70
2022/08/15 11:09:55;;;;;;;2.05;1.50;;;25.10;46.60;;;;;;6222594;28;20034;-70
2022/08/15 11:13:05;;;;;;;2.45;1.38;;;25.10;45.90;;;;;;6229791;28;20048;-70
2022/08/15 11:16:18;;;;;;;1.95;1.30;;;25.10;45.90;;;;;;6222010;28;20124;-69
2022/08/15 11:19:28;;;;;;;1.67;1.52;;;25.10;45.90;;;;;;6246036;28;20057;-70
2022/08/15 11:22:35;;;;;;;1.98;1.60;;;25.10;45.80;;;;;;6234876;28;20026;-70
2022/08/15 11:25:43;;;;;;;1.88;1.50;;;25.10;45.70;;;;;;6221883;28;20440;-70
2022/08/15 11:28:44;;;;;;;2.08;1.55;;;25.10;45.70;;;;;;6222914;28;20497;-70
2022/08/15 11:31:57;;;;;;;1.50;1.40;;;25.10;45.70;;;;;;6225029;28;20024;-70
2022/08/15 11:35:01;;;;;;;1.80;1.40;;;25.10;45.80;;;;;;6246748;28;20041;-70
2022/08/15 11:38:04;;;;;;;1.70;1.30;;;25.10;45.60;;;;;;6232755;28;20014;-69
2022/08/15 11:41:04;;;;;;;1.52;1.42;;;25.10;45.60;;;;;;6221420;28;20029;-70
2022/08/15 11:44:09;;;;;;;1.50;1.27;;;25.10;45.60;;;;;;6243117;28;20400;-70
2022/08/15 11:47:15;;;;;;;1.70;1.40;;;25.10;45.50;;;;;;6241257;28;20022;-70
2022/08/15 11:50:36;;;;;;;1.33;1.23;;;25.10;46.10;;;;;;6222496;28;20030;-70
2022/08/15 11:54:11;;;;;;;1.40;1.30;;;25.10;45.40;;;;;;6237588;28;20026;-70
2022/08/15 11:57:21;;;;;;;1.63;1.10;;;25.10;45.40;;;;;;6241808;28;20030;-70
2022/08/15 12:00:37;;;;;;;1.73;1.40;;;25.10;45.40;;;;;;6217819;28;20489;-69
2022/08/15 12:03:37;;;;;;;2.00;1.40;;;25.10;45.40;;;;;;6236327;28;20087;-69
2022/08/15 12:06:41;;;;;;;1.55;1.15;;;25.10;45.30;;;;;;6244245;28;20473;-70
2022/08/15 12:09:54;;;;;;;1.20;1.10;;;25.10;45.40;;;;;;6222608;28;20037;-70
2022/08/15 12:12:55;;;;;;;2.05;1.38;;;25.10;45.30;;;;;;6236737;28;20023;-70
2022/08/15 12:15:55;;;;;;;1.30;1.20;;;25.10;45.20;;;;;;6221322;28;20057;-70
2022/08/15 12:18:57;;;;;;;1.50;1.25;;;25.10;45.10;;;;;;6236426;28;20025;-70
2022/08/15 12:22:02;;;;;;;1.83;1.60;;;25.10;45.10;;;;;;6245873;28;20554;-70
2022/08/15 12:25:05;;;;;;;1.38;1.20;;;25.10;45.10;;;;;;6221755;28;20531;-70
2022/08/15 12:28:06;;;;;;;1.40;1.30;;;25.10;45.10;;;;;;6228062;28;20022;-70
2022/08/15 12:31:24;;;;;;;1.38;1.20;;;25.10;45.10;;;;;;6248248;28;20095;-70
2022/08/15 12:34:33;;;;;;;1.30;1.10;;;25.10;45.10;;;;;;6233077;28;20512;-70
2022/08/15 12:37:34;;;;;;;1.75;1.23;;;25.10;45.00;;;;;;6227231;28;20044;-70
2022/08/15 12:40:35;;;;;;;1.98;1.20;;;25.10;45.00;;;;;;6250368;28;20021;-70
2022/08/15 12:43:36;;;;;;;1.58;1.17;;;25.10;45.00;;;;;;6241024;28;20083;-70
2022/08/15 12:46:36;;;;;;;1.20;1.10;;;25.10;45.00;;;;;;6225477;28;20472;-70
2022/08/15 12:49:37;;;;;;;1.10;1.00;;;25.10;44.90;;;;;;6242367;28;20387;-70
2022/08/15 12:52:38;;;;;;;1.48;1.38;;;25.10;44.90;;;;;;6248562;28;20062;-70
2022/08/15 12:55:42;;;;;;;1.33;1.15;;;25.10;44.90;;;;;;6226217;28;20053;-69
2022/08/15 12:58:43;;;;;;;1.10;1.00;;;25.10;44.70;;;;;;6232930;28;20357;-70
2022/08/15 13:01:45;;;;;;;2.35;1.15;;;25.10;44.80;;;;;;6225309;28;20042;-69
2022/08/15 13:04:52;;;;;;;1.10;1.00;;;25.10;44.70;;;;;;6232497;28;20056;-70
2022/08/15 13:07:53;;;;;;;1.42;1.23;;;25.10;44.70;;;;;;6249154;28;20037;-70
2022/08/15 13:10:54;;;;;;;1.27;1.05;;;25.10;45.10;;;;;;6232469;28;20032;-70
2022/08/15 13:13:55;;;;;;;1.10;1.00;;;25.00;45.60;;;;;;6241350;28;20048;-70
2022/08/15 13:16:57;;;;;;;1.00;0.90;;;24.90;46.60;;;;;;6224895;28;20105;-70
2022/08/15 13:23:38;;;;;;;1.20;1.10;;;24.70;47.60;;;;;;6248040;28;20500;-70
2022/08/15 13:26:41;;;;;;;1.27;1.15;;;24.70;47.70;;;;;;6224825;28;20465;-69
2022/08/15 13:29:42;;;;;;;1.35;1.20;;;24.60;47.80;;;;;;6236298;28;20030;-70
2022/08/15 13:32:43;;;;;;;1.23;1.05;;;24.60;47.80;;;;;;6248950;28;20029;-70
2022/08/15 13:35:44;;;;;;;1.30;1.20;;;24.60;48.00;;;;;;6228866;28;20041;-70
2022/08/15 13:38:47;;;;;;;1.40;1.20;;;24.60;48.10;;;;;;6226351;28;20071;-69
2022/08/15 13:41:48;;;;;;;1.08;0.98;;;24.60;48.20;;;;;;6247268;28;20053;-69
2022/08/15 13:44:49;;;;;;;1.17;1.08;;;24.60;48.30;;;;;;6236991;28;20070;-70
2022/08/15 13:47:49;;;;;;;1.20;1.10;;;24.60;48.40;;;;;;6206556;28;20044;-70
2022/08/15 13:50:51;;;;;;;1.35;1.17;;;24.60;48.50;;;;;;6238005;28;20749;-70
2022/08/15 13:53:53;;;;;;;1.23;1.10;;;24.60;48.60;;;;;;6225492;28;20022;-70
2022/08/15 13:56:54;;;;;;;1.33;1.15;;;24.50;48.60;;;;;;6246661;28;20040;-70
2022/08/15 13:59:55;;;;;;;1.40;1.13;;;24.50;48.90;;;;;;6226374;28;20030;-70
2022/08/15 14:02:56;;;;;;;1.13;1.02;;;24.50;48.90;;;;;;6221607;28;20036;-70
2022/08/15 14:05:57;;;;;;;1.10;1.00;;;24.50;48.80;;;;;;6220029;28;20417;-69
2022/08/15 14:08:58;;;;;;;1.10;1.00;;;24.50;48.70;;;;;;6245838;28;20034;-70
2022/08/15 14:11:59;;;;;;;1.00;0.90;;;24.50;48.70;;;;;;6221911;28;20046;-70
2022/08/15 14:14:59;;;;;;;1.23;1.10;;;24.50;48.60;;;;;;6230173;28;20073;-70
2022/08/15 14:18:00;;;;;;;0.93;0.82;;;24.50;48.80;;;;;;6232698;28;20036;-70
2022/08/15 14:21:04;;;;;;;1.05;0.95;;;24.50;49.00;;;;;;6235097;28;20022;-70
2022/08/15 14:24:05;;;;;;;0.80;0.80;;;24.50;49.00;;;;;;6217962;28;20476;-68
2022/08/15 14:27:07;;;;;;;1.13;1.02;;;24.50;49.00;;;;;;6244111;28;20089;-68
2022/08/15 14:30:09;;;;;;;2.13;1.20;;;24.50;49.00;;;;;;6228608;28;20076;-69
2022/08/15 14:33:10;;;;;;;3.53;1.00;;;24.60;49.40;;;;;;6234116;28;21679;-68
2022/08/15 14:36:11;;;;;;;2.17;1.02;;;24.50;49.20;;;;;;6236722;28;20122;-69
2022/08/15 14:39:13;;;;;;;1.27;1.05;;;24.50;49.10;;;;;;6245337;28;20029;-69
2022/08/15 14:42:15;;;;;;;1.13;1.02;;;24.50;49.20;;;;;;6222802;28;20022;-69
2022/08/15 14:45:17;;;;;;;1.23;1.13;;;24.50;49.50;;;;;;6238112;28;20029;-69
2022/08/15 14:48:26;;;;;;;1.20;1.10;;;24.50;49.50;;;;;;6184851;28;20041;-67
2022/08/15 14:51:31;;;;;;;1.58;1.23;;;24.50;49.30;;;;;;6229745;28;20030;-68
2022/08/15 14:54:36;;;;;;;2.30;1.40;;;24.50;49.50;;;;;;6243020;28;20067;-68
2022/08/15 14:57:38;;;;;;;4.20;1.20;;;24.50;49.50;;;;;;6244862;28;20025;-68
2022/08/15 15:00:38;;;;;;;1.38;1.20;;;24.50;49.70;;;;;;6238220;28;20022;-68
2022/08/15 15:03:39;;;;;;;1.45;1.10;;;24.60;49.50;;;;;;6231660;28;20014;-68
2022/08/15 15:06:43;;;;;;;1.00;0.90;;;24.60;49.30;;;;;;6230678;28;20030;-68
2022/08/15 15:09:44;;;;;;;1.30;1.20;;;24.60;49.30;;;;;;6220559;28;20405;-68
2022/08/15 15:12:44;;;;;;;1.63;1.10;;;24.60;49.30;;;;;;6243626;28;20025;-68
2022/08/15 15:15:47;;;;;;;1.20;1.08;;;24.60;49.50;;;;;;6239093;28;20029;-68
2022/08/15 15:18:48;;;;;;;1.42;1.30;;;24.60;49.60;;;;;;6220072;28;20022;-68
2022/08/15 15:21:48;;;;;;;1.23;1.13;;;24.50;49.70;;;;;;6235140;28;20032;-68
2022/08/15 15:24:50;;;;;;;1.77;1.10;;;24.50;49.80;;;;;;6227258;28;20155;-68
2022/08/15 15:27:51;;;;;;;2.97;1.55;;;24.50;49.70;;;;;;6226215;28;20157;-68
2022/08/15 15:30:53;;;;;;;2.25;1.40;;;24.50;49.80;;;;;;6224421;28;20025;-68
2022/08/15 15:33:53;;;;;;;1.52;1.27;;;24.50;49.90;;;;;;6244698;28;20029;-68
2022/08/15 15:36:54;;;;;;;1.67;1.20;;;24.50;49.90;;;;;;6232084;28;20519;-68
2022/08/15 15:39:55;;;;;;;1.27;1.08;;;24.50;50.00;;;;;;6232006;28;20021;-68
2022/08/15 15:42:55;;;;;;;1.92;1.33;;;24.50;50.00;;;;;;6242004;28;20026;-68
2022/08/15 15:45:59;;;;;;;2.22;1.38;;;24.50;50.00;;;;;;6241401;28;20109;-68
2022/08/15 15:49:02;;;;;;;1.20;1.10;;;24.50;50.00;;;;;;6219554;28;20037;-68
2022/08/15 15:52:06;;;;;;;1.30;1.20;;;24.40;50.00;;;;;;6221016;28;20052;-68
2022/08/15 15:55:08;;;;;;;1.15;1.00;;;24.40;50.10;;;;;;6219822;28;20025;-68
2022/08/15 15:58:09;;;;;;;1.05;0.95;;;24.40;50.10;;;;;;6226676;28;20073;-68
2022/08/15 16:01:14;;;;;;;1.10;1.00;;;24.40;50.10;;;;;;6232304;28;20029;-68
2022/08/15 16:04:15;;;;;;;1.00;0.90;;;24.40;50.10;;;;;;6244156;28;20052;-68
2022/08/15 16:07:16;;;;;;;1.33;1.00;;;24.40;50.10;;;;;;6237828;28;20432;-68
2022/08/15 16:10:32;;;;;;;1.30;1.20;;;24.40;50.10;;;;;;6237822;28;20033;-68
2022/08/15 16:13:44;;;;;;;1.00;0.90;;;24.40;50.10;;;;;;6228377;28;20022;-68
2022/08/15 16:17:00;;;;;;;1.50;1.33;;;24.40;50.20;;;;;;6230870;28;20034;-68
2022/08/15 16:20:25;;;;;;;1.40;1.30;;;24.40;50.10;;;;;;6236264;28;20558;-68
2022/08/15 16:23:42;;;;;;;1.67;1.20;;;24.40;50.20;;;;;;6241637;28;20049;-68
2022/08/15 16:26:52;;;;;;;1.05;0.95;;;24.40;50.20;;;;;;6242963;28;20416;-68
2022/08/15 16:30:16;;;;;;;1.02;0.93;;;24.40;50.20;;;;;;6230234;28;20038;-68